createdAt,value
2023-05-05T00:01:03.107Z,98461.75
2023-05-05T00:03:29.964Z,98458.91
2023-05-05T00:05:58.928Z,98461.78
2023-05-05T00:08:31.044Z,98466.44
2023-05-05T00:11:00.764Z,98468.69
2023-05-05T00:13:27.230Z,98463.97
2023-05-05T00:15:53.879Z,98463.19
2023-05-05T00:18:21.268Z,98460.72
2023-05-05T00:20:48.173Z,98462.19
2023-05-05T00:23:15.958Z,98462.34
2023-05-05T00:25:42.567Z,98471.06
2023-05-05T00:28:09.076Z,98462.97
2023-05-05T00:30:36.528Z,98467.41
2023-05-05T00:33:03.120Z,98464.97
2023-05-05T00:35:29.659Z,98463.78
2023-05-05T00:37:56.148Z,98461.53
2023-05-05T00:40:23.465Z,98460.53
2023-05-05T00:42:51.076Z,98472.88
2023-05-05T00:45:19.279Z,98473.88
2023-05-05T00:47:51.514Z,98476.13
2023-05-05T00:50:29.488Z,98469.66
2023-05-05T00:53:03.274Z,98468.03
2023-05-05T00:55:30.818Z,98471.06
2023-05-05T00:58:02.885Z,98458.50
2023-05-05T01:00:30.057Z,98464.59
2023-05-05T01:02:57.370Z,98467.25
2023-05-05T01:05:26.968Z,98476.03
2023-05-05T01:08:30.626Z,98474.38
2023-05-05T01:11:10.535Z,98470.53
2023-05-05T01:13:53.701Z,98469.91
2023-05-05T01:16:27.357Z,98475.41
2023-05-05T01:19:08.981Z,98470.09
2023-05-05T01:21:41.200Z,98464.81
2023-05-05T01:24:29.521Z,98465.41
2023-05-05T01:27:27.282Z,98465.84
2023-05-05T01:30:21.252Z,98473.16
2023-05-05T01:32:55.157Z,98477.00
2023-05-05T01:35:44.556Z,98466.03
2023-05-05T01:38:16.997Z,98472.53
2023-05-05T01:40:48.067Z,98478.25
2023-05-05T01:43:18.864Z,98482.91
2023-05-05T01:45:47.680Z,98480.69
2023-05-05T01:48:17.815Z,98485.75
2023-05-05T01:50:47.718Z,98485.38
2023-05-05T01:53:18.072Z,98484.34
2023-05-05T01:55:47.319Z,98485.34
2023-05-05T01:58:16.209Z,98489.41
2023-05-05T02:00:44.506Z,98490.81
2023-05-05T02:03:14.489Z,98484.94
2023-05-05T02:05:43.444Z,98488.59
2023-05-05T02:08:11.447Z,98483.91
2023-05-05T02:10:42.832Z,98485.75
2023-05-05T02:13:12.550Z,98490.81
2023-05-05T02:15:40.505Z,98481.25
2023-05-05T02:18:09.872Z,98484.09
2023-05-05T02:20:39.607Z,98481.22
2023-05-05T02:23:07.895Z,98494.22
2023-05-05T02:25:43.836Z,98488.84
2023-05-05T02:28:17.796Z,98491.84
2023-05-05T02:30:55.176Z,98500.16
2023-05-05T02:33:23.574Z,98496.06
2023-05-05T02:35:53.332Z,98490.56
2023-05-05T02:38:27.552Z,98496.16
2023-05-05T02:41:00.377Z,98495.69
2023-05-05T02:43:31.621Z,98500.59
2023-05-05T02:45:58.516Z,98496.94
2023-05-05T02:48:25.707Z,98493.84
2023-05-05T02:50:53.731Z,98506.94
2023-05-05T02:53:27.500Z,98507.34
2023-05-05T02:55:59.998Z,98509.63
2023-05-05T02:59:10.021Z,98511.69
2023-05-05T03:01:51.146Z,98515.88
2023-05-05T03:04:42.604Z,98518.72
2023-05-05T03:07:15.202Z,98513.88
2023-05-05T03:09:55.356Z,98523.03
2023-05-05T03:12:27.397Z,98515.19
2023-05-05T03:15:12.434Z,98520.69
2023-05-05T03:17:41.572Z,98523.44
2023-05-05T03:20:10.364Z,98528.72
2023-05-05T03:22:40.415Z,98521.13
2023-05-05T03:25:11.418Z,98515.47
2023-05-05T03:27:37.899Z,98505.16
2023-05-05T03:30:06.846Z,98513.53
2023-05-05T03:32:36.053Z,98513.97
2023-05-05T03:35:02.598Z,98511.69
2023-05-05T03:37:32.709Z,98521.94
2023-05-05T03:39:59.567Z,98523.03
2023-05-05T03:42:26.032Z,98525.50
2023-05-05T03:44:53.783Z,98519.81
2023-05-05T03:47:24.499Z,98517.91
2023-05-05T03:49:52.431Z,98526.13
2023-05-05T03:52:19.083Z,98523.53
2023-05-05T03:54:46.397Z,98528.03
2023-05-05T03:57:12.840Z,98531.16
2023-05-05T03:59:40.447Z,98528.00
2023-05-05T04:02:07.446Z,98532.25
2023-05-05T04:04:34.176Z,98528.72
2023-05-05T04:07:00.724Z,98526.34
2023-05-05T04:09:27.200Z,98533.06
2023-05-05T04:11:53.825Z,98537.78
2023-05-05T04:14:20.470Z,98537.09
2023-05-05T04:16:46.927Z,98541.66
2023-05-05T04:19:13.490Z,98539.91
2023-05-05T04:21:40.718Z,98534.75
2023-05-05T04:24:07.197Z,98534.47
2023-05-05T04:26:34.080Z,98532.53
2023-05-05T04:29:00.978Z,98530.06
2023-05-05T04:31:27.620Z,98533.56
2023-05-05T04:33:54.187Z,98538.31
2023-05-05T04:36:20.883Z,98539.09
2023-05-05T04:38:47.830Z,98549.06
2023-05-05T04:41:14.328Z,98552.13
2023-05-05T04:43:42.566Z,98558.03
2023-05-05T04:46:09.183Z,98550.91
2023-05-05T04:48:37.889Z,98557.69
2023-05-05T04:51:06.390Z,98552.56
2023-05-05T04:53:33.438Z,98556.31
2023-05-05T04:56:01.193Z,98558.06
2023-05-05T04:58:28.482Z,98558.63
2023-05-05T05:00:55.330Z,98563.94
2023-05-05T05:03:22.053Z,98554.16
2023-05-05T05:05:48.694Z,98551.56
2023-05-05T05:08:18.567Z,98557.06
2023-05-05T05:10:45.320Z,98560.97
2023-05-05T05:13:12.867Z,98560.81
2023-05-05T05:15:39.748Z,98562.47
2023-05-05T05:18:06.495Z,98569.22
2023-05-05T05:20:33.177Z,98572.66
2023-05-05T05:23:02.051Z,98564.53
2023-05-05T05:25:30.311Z,98572.09
2023-05-05T05:28:08.815Z,98567.56
2023-05-05T05:30:39.312Z,98566.66
2023-05-05T05:33:07.651Z,98585.50
2023-05-05T05:35:34.466Z,98572.91
2023-05-05T05:38:01.323Z,98580.53
2023-05-05T05:40:27.986Z,98586.63
2023-05-05T05:42:55.141Z,98581.66
2023-05-05T05:45:23.542Z,98587.34
2023-05-05T05:47:50.374Z,98592.31
2023-05-05T05:50:17.023Z,98590.56
2023-05-05T05:52:43.751Z,98588.66
2023-05-05T05:55:10.445Z,98591.03
2023-05-05T05:57:38.596Z,98592.91
2023-05-05T06:00:07.769Z,98593.47
2023-05-05T06:02:42.719Z,98590.06
2023-05-05T06:05:13.925Z,98596.69
2023-05-05T06:07:42.348Z,98598.56
2023-05-05T06:10:25.834Z,98597.94
2023-05-05T06:12:57.574Z,98602.19
2023-05-05T06:15:25.484Z,98592.28
2023-05-05T06:17:52.358Z,98593.53
2023-05-05T06:20:19.005Z,98586.25
2023-05-05T06:22:45.643Z,98582.81
2023-05-05T06:25:12.276Z,98586.91
2023-05-05T06:27:38.717Z,98587.25
2023-05-05T06:30:06.838Z,98582.91
2023-05-05T06:32:33.445Z,98585.38
2023-05-05T06:34:59.944Z,98579.97
2023-05-05T06:37:26.403Z,98579.97
2023-05-05T06:39:52.850Z,98585.94
2023-05-05T06:42:19.301Z,98588.13
2023-05-05T06:44:46.421Z,98586.78
2023-05-05T06:47:12.984Z,98583.78
2023-05-05T06:49:39.448Z,98584.00
2023-05-05T06:52:08.099Z,98583.16
2023-05-05T06:54:34.532Z,98580.72
2023-05-05T06:57:01.090Z,98575.75
2023-05-05T06:59:27.595Z,98576.41
2023-05-05T07:01:54.227Z,98558.91
2023-05-05T07:04:21.357Z,98561.75
2023-05-05T07:06:47.834Z,98555.78
2023-05-05T07:09:16.403Z,98564.09
2023-05-05T07:11:43.494Z,98558.53
2023-05-05T07:14:09.936Z,98564.44
2023-05-05T07:16:37.259Z,98557.38
2023-05-05T07:19:06.121Z,98556.97
2023-05-05T07:21:34.153Z,98563.88
2023-05-05T07:24:02.324Z,98558.66
2023-05-05T07:26:28.986Z,98559.72
2023-05-05T07:28:57.202Z,98556.34
2023-05-05T07:31:23.807Z,98548.25
2023-05-05T07:33:50.278Z,98548.06
2023-05-05T07:36:20.041Z,98553.38
2023-05-05T07:38:46.620Z,98541.38
2023-05-05T07:41:13.216Z,98546.38
2023-05-05T07:43:44.509Z,98550.19
2023-05-05T07:46:11.514Z,98551.09
2023-05-05T07:48:41.621Z,98553.63
2023-05-05T07:51:08.610Z,98557.13
2023-05-05T07:53:35.149Z,98554.09
2023-05-05T07:56:01.836Z,98550.38
2023-05-05T07:58:28.356Z,98555.94
2023-05-05T08:00:54.869Z,98553.31
2023-05-05T08:03:24.295Z,98548.97
2023-05-05T08:05:55.683Z,98548.22
2023-05-05T08:08:26.844Z,98543.06
2023-05-05T08:10:53.491Z,98550.38
2023-05-05T08:13:20.447Z,98549.50
2023-05-05T08:15:47.271Z,98543.84
2023-05-05T08:18:14.416Z,98543.19
2023-05-05T08:20:41.056Z,98540.84
2023-05-05T08:23:07.575Z,98547.00
2023-05-05T08:25:34.126Z,98552.53
2023-05-05T08:28:01.247Z,98554.56
2023-05-05T08:30:28.444Z,98555.91
2023-05-05T08:32:59.613Z,98543.88
2023-05-05T08:35:29.424Z,98552.28
2023-05-05T08:37:59.086Z,98552.47
2023-05-05T08:40:32.137Z,98556.94
2023-05-05T08:42:59.165Z,98548.63
2023-05-05T08:45:27.786Z,98551.50
2023-05-05T08:47:56.717Z,98547.88
2023-05-05T08:50:26.883Z,98544.50
2023-05-05T08:53:07.340Z,98549.88
2023-05-05T08:55:35.425Z,98539.25
2023-05-05T08:58:05.255Z,98542.06
2023-05-05T09:00:33.144Z,98537.91
2023-05-05T09:03:01.372Z,98543.00
2023-05-05T09:05:28.009Z,98533.47
2023-05-05T09:07:54.738Z,98529.66
2023-05-05T09:10:21.570Z,98531.72
2023-05-05T09:12:50.930Z,98528.06
2023-05-05T09:15:17.635Z,98533.91
2023-05-05T09:17:44.306Z,98527.13
2023-05-05T09:20:13.213Z,98530.06
2023-05-05T09:22:41.767Z,98532.16
2023-05-05T09:25:15.601Z,98534.38
2023-05-05T09:27:47.425Z,98536.72
2023-05-05T09:30:27.056Z,98537.47
2023-05-05T09:32:55.072Z,98539.88
2023-05-05T09:35:22.658Z,98540.88
2023-05-05T09:37:49.714Z,98537.13
2023-05-05T09:40:18.943Z,98531.84
2023-05-05T09:42:45.928Z,98532.22
2023-05-05T09:45:18.568Z,98529.97
2023-05-05T09:47:46.790Z,98532.66
2023-05-05T09:50:16.030Z,98537.25
2023-05-05T09:52:43.274Z,98534.22
2023-05-05T09:55:20.577Z,98526.09
2023-05-05T09:57:47.477Z,98531.91
2023-05-05T10:00:17.610Z,98531.72
2023-05-05T10:02:44.370Z,98529.84
2023-05-05T10:05:16.263Z,98524.69
2023-05-05T10:07:47.738Z,98525.47
2023-05-05T10:10:18.081Z,98526.38
2023-05-05T10:12:47.523Z,98525.94
2023-05-05T10:15:18.457Z,98523.59
2023-05-05T10:18:05.351Z,98525.59
2023-05-05T10:20:33.456Z,98519.47
2023-05-05T10:23:05.431Z,98528.91
2023-05-05T10:25:39.105Z,98518.31
2023-05-05T10:28:09.424Z,98522.25
2023-05-05T10:30:44.000Z,98516.25
2023-05-05T10:35:55.421Z,98524.00
2023-05-05T10:38:24.812Z,98517.28
2023-05-05T10:40:56.139Z,98518.06
2023-05-05T10:43:24.108Z,98516.28
2023-05-05T10:45:51.092Z,98516.34
2023-05-05T10:48:25.000Z,98509.19
2023-05-05T10:50:57.431Z,98511.56
2023-05-05T10:53:29.308Z,98512.69
2023-05-05T10:56:21.937Z,98506.69
2023-05-05T10:58:58.890Z,98507.16
2023-05-05T11:01:33.492Z,98501.25
2023-05-05T11:04:20.540Z,98495.97
2023-05-05T11:07:11.823Z,98492.47
2023-05-05T11:10:01.603Z,98484.06
2023-05-05T11:12:29.712Z,98480.78
2023-05-05T11:15:24.181Z,98474.13
2023-05-05T11:17:51.069Z,98480.06
2023-05-05T11:20:17.647Z,98473.28
2023-05-05T11:23:02.118Z,98474.44
2023-05-05T11:25:34.664Z,98464.06
2023-05-05T11:28:06.344Z,98461.78
2023-05-05T11:30:32.913Z,98465.56
2023-05-05T11:33:31.470Z,98467.75
2023-05-05T11:36:03.520Z,98466.97
2023-05-05T11:39:11.299Z,98465.59
2023-05-05T11:42:02.944Z,98463.31
2023-05-05T11:44:35.771Z,98456.53
2023-05-05T11:47:04.994Z,98457.44
2023-05-05T11:49:36.671Z,98457.78
2023-05-05T11:52:12.440Z,98455.44
2023-05-05T11:54:47.989Z,98458.63
2023-05-05T11:57:21.158Z,98454.81
2023-05-05T11:59:56.881Z,98450.19
2023-05-05T12:02:24.371Z,98453.94
2023-05-05T12:04:50.992Z,98453.75
2023-05-05T12:07:19.042Z,98444.47
2023-05-05T12:09:47.238Z,98444.19
2023-05-05T12:12:14.790Z,98434.88
2023-05-05T12:14:52.632Z,98420.84
2023-05-05T12:17:21.191Z,98428.22
2023-05-05T12:19:55.192Z,98416.16
2023-05-05T12:22:24.241Z,98418.66
2023-05-05T12:24:55.604Z,98423.25
2023-05-05T12:27:22.794Z,98410.91
2023-05-05T12:29:49.591Z,98401.03
2023-05-05T12:32:27.957Z,98394.28
2023-05-05T12:34:57.534Z,98400.31
2023-05-05T12:37:25.776Z,98395.91
2023-05-05T12:39:54.740Z,98398.38
2023-05-05T12:43:12.302Z,98400.50
2023-05-05T12:45:38.822Z,98399.19
2023-05-05T12:48:23.972Z,98394.91
2023-05-05T12:50:50.980Z,98401.72
2023-05-05T12:53:24.518Z,98396.38
2023-05-05T12:55:51.857Z,98399.69
2023-05-05T12:58:18.273Z,98402.44
2023-05-05T13:00:44.706Z,98400.03
2023-05-05T13:03:21.121Z,98397.16
2023-05-05T13:05:50.269Z,98383.69
2023-05-05T13:08:18.485Z,98388.53
2023-05-05T13:10:58.328Z,98388.97
2023-05-05T13:13:24.820Z,98391.09
2023-05-05T13:15:51.323Z,98389.09
2023-05-05T13:18:17.930Z,98385.78
2023-05-05T13:20:44.407Z,98391.19
2023-05-05T13:23:10.932Z,98385.16
2023-05-05T13:25:37.443Z,98391.72
2023-05-05T13:28:04.066Z,98383.91
2023-05-05T13:30:30.551Z,98388.84
2023-05-05T13:32:57.072Z,98386.16
2023-05-05T13:35:23.641Z,98381.22
2023-05-05T13:37:50.154Z,98379.25
2023-05-05T13:40:16.671Z,98384.56
2023-05-05T13:42:43.264Z,98377.28
2023-05-05T13:45:10.463Z,98377.72
2023-05-05T13:47:38.110Z,98373.13
2023-05-05T13:50:05.046Z,98373.69
2023-05-05T13:52:32.274Z,98373.22
2023-05-05T13:55:00.787Z,98368.66
2023-05-05T13:57:27.202Z,98368.41
2023-05-05T13:59:53.576Z,98374.06
2023-05-05T14:02:19.988Z,98374.06
2023-05-05T14:04:47.152Z,98375.44
2023-05-05T14:07:13.648Z,98374.06
2023-05-05T14:09:40.033Z,98372.22
2023-05-05T14:12:06.475Z,98376.97
2023-05-05T14:14:32.975Z,98378.31
2023-05-05T14:16:59.406Z,98385.50
2023-05-05T14:19:25.864Z,98402.63
2023-05-05T14:21:52.288Z,98421.53
2023-05-05T14:24:18.674Z,98418.16
2023-05-05T14:26:45.131Z,98419.13
2023-05-05T14:29:11.518Z,98416.19
2023-05-05T14:31:37.947Z,98415.88
2023-05-05T14:34:04.360Z,98419.06
2023-05-05T14:36:31.206Z,98413.81
2023-05-05T14:38:57.682Z,98413.03
2023-05-05T14:41:24.356Z,98416.06
2023-05-05T14:43:50.784Z,98415.25
2023-05-05T14:46:18.600Z,98412.50
2023-05-05T14:48:46.391Z,98419.91
2023-05-05T14:51:14.936Z,98421.03
2023-05-05T14:53:41.412Z,98418.75
2023-05-05T14:56:07.834Z,98423.44
2023-05-05T14:58:34.393Z,98426.25
2023-05-05T15:01:00.913Z,98434.66
2023-05-05T15:03:27.615Z,98437.66
2023-05-05T15:05:54.142Z,98443.53
2023-05-05T15:08:20.645Z,98450.44
2023-05-05T15:10:47.078Z,98453.94
2023-05-05T15:13:13.651Z,98453.38
2023-05-05T15:15:40.416Z,98455.69
2023-05-05T15:18:07.060Z,98458.72
2023-05-05T15:20:33.465Z,98467.47
2023-05-05T15:23:01.293Z,98468.53
2023-05-05T15:25:27.798Z,98466.34
2023-05-05T15:27:54.209Z,98476.88
2023-05-05T15:30:20.856Z,98477.88
2023-05-05T15:32:47.806Z,98455.41
2023-05-05T15:35:14.225Z,98443.91
2023-05-05T15:37:42.347Z,98441.09
2023-05-05T15:40:09.293Z,98431.97
2023-05-05T15:42:35.753Z,98436.50
2023-05-05T15:45:02.723Z,98427.59
2023-05-05T15:47:29.246Z,98433.75
2023-05-05T15:49:55.690Z,98433.16
2023-05-05T15:52:22.140Z,98437.00
2023-05-05T15:54:48.590Z,98435.50
2023-05-05T15:57:15.299Z,98444.41
2023-05-05T15:59:41.770Z,98443.44
2023-05-05T16:02:08.206Z,98443.38
2023-05-05T16:04:34.650Z,98442.72
2023-05-05T16:07:03.164Z,98439.97
2023-05-05T16:09:29.581Z,98433.94
2023-05-05T16:11:55.996Z,98437.84
2023-05-05T16:14:22.478Z,98437.28
2023-05-05T16:16:48.976Z,98435.44
2023-05-05T16:19:15.909Z,98428.00
2023-05-05T16:21:42.358Z,98434.78
2023-05-05T16:24:08.827Z,98433.00
2023-05-05T16:26:35.870Z,98437.00
2023-05-05T16:29:02.348Z,98438.28
2023-05-05T16:31:28.767Z,98431.56
2023-05-05T16:33:55.208Z,98431.38
2023-05-05T16:36:21.601Z,98434.53
2023-05-05T16:38:48.064Z,98429.97
2023-05-05T16:41:14.534Z,98427.69
2023-05-05T16:43:40.958Z,98432.72
2023-05-05T16:46:07.449Z,98433.06
2023-05-05T16:48:33.929Z,98429.41
2023-05-05T16:51:00.341Z,98430.66
2023-05-05T16:53:26.819Z,98434.97
2023-05-05T16:55:53.412Z,98441.47
2023-05-05T16:58:21.174Z,98436.94
2023-05-05T17:00:48.990Z,98435.09
2023-05-05T17:03:16.538Z,98438.91
2023-05-05T17:05:43.874Z,98426.75
2023-05-05T17:08:14.474Z,98424.63
2023-05-05T17:10:42.137Z,98432.50
2023-05-05T17:13:09.608Z,98431.66
2023-05-05T17:15:37.331Z,98428.44
2023-05-05T17:18:07.855Z,98423.56
2023-05-05T17:20:34.758Z,98431.41
2023-05-05T17:23:03.885Z,98426.06
2023-05-05T17:25:31.062Z,98429.63
2023-05-05T17:27:57.487Z,98432.44
2023-05-05T17:30:24.045Z,98429.41
2023-05-05T17:32:50.533Z,98428.16
2023-05-05T17:35:17.112Z,98433.22
2023-05-05T17:37:43.533Z,98435.53
2023-05-05T17:40:10.397Z,98435.47
2023-05-05T17:42:38.082Z,98444.28
2023-05-05T17:45:05.147Z,98446.88
2023-05-05T17:47:31.888Z,98458.63
2023-05-05T17:49:58.404Z,98454.72
2023-05-05T17:52:24.972Z,98457.84
2023-05-05T17:54:51.873Z,98450.75
2023-05-05T17:57:20.952Z,98455.78
2023-05-05T17:59:49.536Z,98464.84
2023-05-05T18:02:16.730Z,98463.22
2023-05-05T18:04:43.372Z,98461.84
2023-05-05T18:07:11.830Z,98460.09
2023-05-05T18:09:38.907Z,98460.22
2023-05-05T18:12:05.771Z,98466.25
2023-05-05T18:14:32.270Z,98463.03
2023-05-05T18:16:58.715Z,98473.09
2023-05-05T18:19:25.474Z,98470.41
2023-05-05T18:21:54.398Z,98471.56
2023-05-05T18:24:20.996Z,98481.53
2023-05-05T18:26:52.435Z,98478.72
2023-05-05T18:29:20.047Z,98484.94
2023-05-05T18:31:51.530Z,98481.22
2023-05-05T18:34:20.312Z,98485.44
2023-05-05T18:36:47.768Z,98484.63
2023-05-05T18:39:14.634Z,98486.59
2023-05-05T18:41:41.332Z,98489.09
2023-05-05T18:44:07.987Z,98489.69
2023-05-05T18:46:34.677Z,98493.50
2023-05-05T18:49:01.240Z,98504.13
2023-05-05T18:51:28.550Z,98501.22
2023-05-05T18:53:55.186Z,98502.69
2023-05-05T18:56:21.730Z,98509.25
2023-05-05T18:58:48.566Z,98505.34
2023-05-05T19:01:15.999Z,98505.81
2023-05-05T19:03:45.785Z,98509.63
2023-05-05T19:06:12.254Z,98507.78
2023-05-05T19:08:38.758Z,98509.25
2023-05-05T19:11:05.301Z,98515.41
2023-05-05T19:13:31.758Z,98513.53
2023-05-05T19:15:58.327Z,98516.00
2023-05-05T19:18:25.160Z,98518.91
2023-05-05T19:20:51.607Z,98512.56
2023-05-05T19:23:18.120Z,98514.25
2023-05-05T19:25:44.709Z,98513.59
2023-05-05T19:28:11.956Z,98518.13
2023-05-05T19:30:38.427Z,98521.09
2023-05-05T19:33:05.010Z,98526.09
2023-05-05T19:35:31.549Z,98530.75
2023-05-05T19:37:58.066Z,98527.53
2023-05-05T19:40:24.606Z,98521.03
2023-05-05T19:42:51.107Z,98532.84
2023-05-05T19:45:17.821Z,98536.94
2023-05-05T19:47:44.408Z,98536.56
2023-05-05T19:50:11.522Z,98540.47
2023-05-05T19:52:38.450Z,98541.50
2023-05-05T19:55:05.871Z,98542.16
2023-05-05T19:57:32.404Z,98539.53
2023-05-05T19:59:58.896Z,98543.63
2023-05-05T20:02:27.191Z,98545.53
2023-05-05T20:04:53.898Z,98548.81
2023-05-05T20:07:20.770Z,98549.44
2023-05-05T20:09:47.252Z,98551.91
2023-05-05T20:12:13.834Z,98560.06
2023-05-05T20:14:40.508Z,98562.09
2023-05-05T20:17:07.007Z,98558.41
2023-05-05T20:19:33.498Z,98553.75
2023-05-05T20:22:00.043Z,98560.88
2023-05-05T20:24:28.469Z,98562.28
2023-05-05T20:26:54.948Z,98552.75
2023-05-05T20:29:22.067Z,98557.81
2023-05-05T20:31:48.696Z,98564.16
2023-05-05T20:34:15.213Z,98570.47
2023-05-05T20:36:41.741Z,98570.25
2023-05-05T20:39:08.338Z,98563.53
2023-05-05T20:41:36.174Z,98570.47
2023-05-05T20:44:02.598Z,98574.31
2023-05-05T20:46:29.076Z,98575.97
2023-05-05T20:48:55.594Z,98580.84
2023-05-05T20:51:22.108Z,98586.72
2023-05-05T20:53:48.528Z,98585.50
2023-05-05T20:56:14.971Z,98584.25
2023-05-05T20:58:41.402Z,98588.72
2023-05-05T21:01:07.929Z,98585.06
2023-05-05T21:03:36.131Z,98585.66
2023-05-05T21:06:02.750Z,98581.19
2023-05-05T21:08:29.735Z,98583.03
2023-05-05T21:10:56.185Z,98577.53
2023-05-05T21:13:23.009Z,98572.69
2023-05-05T21:15:50.186Z,98563.31
2023-05-05T21:18:16.648Z,98566.38
2023-05-05T21:20:43.102Z,98581.03
2023-05-05T21:23:09.594Z,98573.91
2023-05-05T21:25:37.501Z,98580.56
2023-05-05T21:28:04.243Z,98582.97
2023-05-05T21:30:30.829Z,98574.41
2023-05-05T21:32:57.484Z,98573.78
2023-05-05T21:35:24.151Z,98578.28
2023-05-05T21:37:50.759Z,98587.03
2023-05-05T21:40:17.546Z,98584.31
2023-05-05T21:42:44.120Z,98593.00
2023-05-05T21:45:11.438Z,98591.56
2023-05-05T21:47:38.019Z,98595.78
2023-05-05T21:50:04.885Z,98597.41
2023-05-05T21:52:31.446Z,98590.31
2023-05-05T21:54:58.144Z,98588.78
2023-05-05T21:57:24.671Z,98595.41
2023-05-05T21:59:51.272Z,98595.34
2023-05-05T22:02:17.895Z,98587.84
2023-05-05T22:04:48.401Z,98590.03
2023-05-05T22:07:15.414Z,98587.78
2023-05-05T22:09:42.016Z,98583.53
2023-05-05T22:12:08.557Z,98579.66
2023-05-05T22:14:35.868Z,98583.94
2023-05-05T22:17:02.464Z,98581.06
2023-05-05T22:19:29.035Z,98579.84
2023-05-05T22:21:57.376Z,98582.59
2023-05-05T22:24:23.841Z,98592.78
2023-05-05T22:26:50.472Z,98591.06
2023-05-05T22:29:17.014Z,98591.59
2023-05-05T22:31:43.515Z,98588.56
2023-05-05T22:34:10.023Z,98585.91
2023-05-05T22:36:36.610Z,98583.75
2023-05-05T22:39:03.138Z,98586.81
2023-05-05T22:41:29.652Z,98587.50
2023-05-05T22:43:56.420Z,98589.47
2023-05-05T22:46:22.917Z,98585.91
2023-05-05T22:48:49.515Z,98585.25
2023-05-05T22:51:16.390Z,98590.31
2023-05-05T22:53:42.897Z,98586.66
2023-05-05T22:56:09.338Z,98583.88
2023-05-05T22:58:35.826Z,98584.66
2023-05-05T23:01:02.402Z,98589.00
2023-05-05T23:03:28.862Z,98586.19
2023-05-05T23:05:55.326Z,98588.88
2023-05-05T23:08:23.912Z,98582.16
2023-05-05T23:10:50.542Z,98587.63
2023-05-05T23:13:17.138Z,98583.00
2023-05-05T23:15:43.648Z,98587.69
2023-05-05T23:18:10.166Z,98585.06
2023-05-05T23:20:36.611Z,98592.84
2023-05-05T23:23:03.120Z,98595.09
2023-05-05T23:25:29.650Z,98592.75
2023-05-05T23:27:56.255Z,98586.91
2023-05-05T23:30:22.762Z,98589.75
2023-05-05T23:32:49.369Z,98587.59
2023-05-05T23:35:16.320Z,98583.31
2023-05-05T23:37:42.779Z,98580.34
2023-05-05T23:40:09.576Z,98582.72
2023-05-05T23:42:36.039Z,98583.94
2023-05-05T23:45:03.350Z,98576.41
2023-05-05T23:47:29.824Z,98578.50
2023-05-05T23:49:56.367Z,98573.97
2023-05-05T23:52:22.891Z,98576.19
2023-05-05T23:54:49.427Z,98584.53
2023-05-05T23:57:15.991Z,98584.38
2023-05-05T23:59:42.489Z,98583.75
